sensor_id;sensor_type;location;lat;lon;timestamp;P1;durP1;ratioP1;P2;durP2;ratioP2
64467;SDS011;50853;46.836;16.820;2022-08-01T00:01:47;4.53;;;3.03;;
64467;SDS011;50853;46.836;16.820;2022-08-01T00:04:13;5.55;;;3.10;;
64467;SDS011;50853;46.836;16.820;2022-08-01T00:06:39;7.47;;;2.90;;
64467;SDS011;50853;46.836;16.820;2022-08-01T00:09:05;10.80;;;3.78;;
64467;SDS011;50853;46.836;16.820;2022-08-01T00:11:31;5.03;;;2.95;;
64467;SDS011;50853;46.836;16.820;2022-08-01T00:13:56;5.25;;;2.80;;
64467;SDS011;50853;46.836;16.820;2022-08-01T00:16:22;4.53;;;3.30;;
64467;SDS011;50853;46.836;16.820;2022-08-01T00:18:49;9.77;;;3.17;;
64467;SDS011;50853;46.836;16.820;2022-08-01T00:23:41;9.90;;;2.87;;
64467;SDS011;50853;46.836;16.820;2022-08-01T00:26:08;3.83;;;3.13;;
64467;SDS011;50853;46.836;16.820;2022-08-01T00:28:34;5.55;;;3.00;;
64467;SDS011;50853;46.836;16.820;2022-08-01T00:31:00;4.60;;;2.95;;
64467;SDS011;50853;46.836;16.820;2022-08-01T00:33:26;4.07;;;2.50;;
64467;SDS011;50853;46.836;16.820;2022-08-01T00:35:52;3.95;;;2.65;;
64467;SDS011;50853;46.836;16.820;2022-08-01T00:38:18;5.70;;;3.03;;
64467;SDS011;50853;46.836;16.820;2022-08-01T00:40:44;7.65;;;3.00;;
64467;SDS011;50853;46.836;16.820;2022-08-01T00:43:10;6.10;;;3.13;;
64467;SDS011;50853;46.836;16.820;2022-08-01T00:45:35;8.18;;;3.38;;
64467;SDS011;50853;46.836;16.820;2022-08-01T00:48:01;4.97;;;3.03;;
64467;SDS011;50853;46.836;16.820;2022-08-01T00:50:28;5.03;;;3.20;;
64467;SDS011;50853;46.836;16.820;2022-08-01T00:52:54;5.30;;;2.60;;
64467;SDS011;50853;46.836;16.820;2022-08-01T00:55:20;5.40;;;2.78;;
64467;SDS011;50853;46.836;16.820;2022-08-01T00:57:47;3.65;;;2.63;;
64467;SDS011;50853;46.836;16.820;2022-08-01T01:00:14;3.70;;;2.58;;
64467;SDS011;50853;46.836;16.820;2022-08-01T01:02:40;4.00;;;3.20;;
64467;SDS011;50853;46.836;16.820;2022-08-01T01:05:06;4.38;;;3.08;;
64467;SDS011;50853;46.836;16.820;2022-08-01T01:10:25;6.75;;;2.85;;
64467;SDS011;50853;46.836;16.820;2022-08-01T01:13:06;7.43;;;3.13;;
64467;SDS011;50853;46.836;16.820;2022-08-01T01:15:47;5.07;;;2.80;;
64467;SDS011;50853;46.836;16.820;2022-08-01T01:18:42;4.13;;;2.70;;
64467;SDS011;50853;46.836;16.820;2022-08-01T01:23:55;5.28;;;3.20;;
64467;SDS011;50853;46.836;16.820;2022-08-01T01:29:30;3.78;;;2.63;;
64467;SDS011;50853;46.836;16.820;2022-08-01T01:32:09;3.15;;;2.20;;
64467;SDS011;50853;46.836;16.820;2022-08-01T01:34:42;5.03;;;2.63;;
64467;SDS011;50853;46.836;16.820;2022-08-01T01:37:14;3.88;;;2.40;;
64467;SDS011;50853;46.836;16.820;2022-08-01T01:39:43;3.20;;;2.33;;
64467;SDS011;50853;46.836;16.820;2022-08-01T01:42:12;4.55;;;2.58;;
64467;SDS011;50853;46.836;16.820;2022-08-01T01:44:39;4.82;;;2.45;;
64467;SDS011;50853;46.836;16.820;2022-08-01T01:47:06;3.80;;;2.20;;
64467;SDS011;50853;46.836;16.820;2022-08-01T01:49:32;4.10;;;2.50;;
64467;SDS011;50853;46.836;16.820;2022-08-01T01:51:59;4.82;;;2.42;;
64467;SDS011;50853;46.836;16.820;2022-08-01T01:54:30;3.75;;;2.60;;
64467;SDS011;50853;46.836;16.820;2022-08-01T01:57:00;2.95;;;2.28;;
64467;SDS011;50853;46.836;16.820;2022-08-01T01:59:30;6.28;;;2.30;;
64467;SDS011;50853;46.836;16.820;2022-08-01T02:02:01;6.15;;;2.72;;
64467;SDS011;50853;46.836;16.820;2022-08-01T02:04:29;4.35;;;2.63;;
64467;SDS011;50853;46.836;16.820;2022-08-01T02:06:58;6.63;;;2.55;;
64467;SDS011;50853;46.836;16.820;2022-08-01T02:09:26;4.47;;;2.50;;
64467;SDS011;50853;46.836;16.820;2022-08-01T02:11:53;6.90;;;3.13;;
64467;SDS011;50853;46.836;16.820;2022-08-01T02:14:20;4.13;;;2.90;;
64467;SDS011;50853;46.836;16.820;2022-08-01T02:16:49;5.13;;;3.05;;
64467;SDS011;50853;46.836;16.820;2022-08-01T02:19:18;5.97;;;3.05;;
64467;SDS011;50853;46.836;16.820;2022-08-01T02:24:14;3.80;;;2.67;;
64467;SDS011;50853;46.836;16.820;2022-08-01T02:26:49;4.95;;;2.60;;
64467;SDS011;50853;46.836;16.820;2022-08-01T02:30:04;4.85;;;2.63;;
64467;SDS011;50853;46.836;16.820;2022-08-01T02:32:37;4.72;;;2.63;;
64467;SDS011;50853;46.836;16.820;2022-08-01T02:35:35;3.58;;;2.50;;
64467;SDS011;50853;46.836;16.820;2022-08-01T02:38:01;9.50;;;3.10;;
64467;SDS011;50853;46.836;16.820;2022-08-01T02:40:29;6.32;;;2.88;;
64467;SDS011;50853;46.836;16.820;2022-08-01T02:42:58;7.07;;;3.20;;
64467;SDS011;50853;46.836;16.820;2022-08-01T02:45:26;7.53;;;2.97;;
64467;SDS011;50853;46.836;16.820;2022-08-01T02:47:55;6.07;;;2.97;;
64467;SDS011;50853;46.836;16.820;2022-08-01T02:50:26;4.28;;;2.42;;
64467;SDS011;50853;46.836;16.820;2022-08-01T02:52:54;3.10;;;2.67;;
64467;SDS011;50853;46.836;16.820;2022-08-01T02:55:22;3.72;;;2.63;;
64467;SDS011;50853;46.836;16.820;2022-08-01T02:57:48;5.23;;;2.93;;
64467;SDS011;50853;46.836;16.820;2022-08-01T03:00:17;6.18;;;2.88;;
64467;SDS011;50853;46.836;16.820;2022-08-01T03:02:43;7.45;;;2.97;;
64467;SDS011;50853;46.836;16.820;2022-08-01T03:05:11;3.85;;;2.65;;
64467;SDS011;50853;46.836;16.820;2022-08-01T03:07:38;6.93;;;2.80;;
64467;SDS011;50853;46.836;16.820;2022-08-01T03:10:06;5.13;;;3.20;;
64467;SDS011;50853;46.836;16.820;2022-08-01T03:12:33;5.07;;;3.13;;
64467;SDS011;50853;46.836;16.820;2022-08-01T03:15:02;4.68;;;2.95;;
64467;SDS011;50853;46.836;16.820;2022-08-01T03:17:30;4.93;;;2.70;;
64467;SDS011;50853;46.836;16.820;2022-08-01T03:19:57;8.15;;;2.92;;
64467;SDS011;50853;46.836;16.820;2022-08-01T03:22:25;5.68;;;3.15;;
64467;SDS011;50853;46.836;16.820;2022-08-01T03:24:54;5.65;;;2.75;;
64467;SDS011;50853;46.836;16.820;2022-08-01T03:27:22;6.82;;;2.95;;
64467;SDS011;50853;46.836;16.820;2022-08-01T03:29:50;8.98;;;3.20;;
64467;SDS011;50853;46.836;16.820;2022-08-01T03:32:19;3.72;;;2.97;;
64467;SDS011;50853;46.836;16.820;2022-08-01T03:34:46;4.20;;;2.85;;
64467;SDS011;50853;46.836;16.820;2022-08-01T03:37:47;5.25;;;3.00;;
64467;SDS011;50853;46.836;16.820;2022-08-01T03:42:49;5.63;;;2.97;;
64467;SDS011;50853;46.836;16.820;2022-08-01T03:45:21;4.22;;;3.10;;
64467;SDS011;50853;46.836;16.820;2022-08-01T03:47:52;6.65;;;3.05;;
64467;SDS011;50853;46.836;16.820;2022-08-01T03:50:24;3.47;;;2.97;;
64467;SDS011;50853;46.836;16.820;2022-08-01T03:52:50;6.53;;;3.13;;
64467;SDS011;50853;46.836;16.820;2022-08-01T03:55:18;8.20;;;3.15;;
64467;SDS011;50853;46.836;16.820;2022-08-01T03:57:46;4.53;;;3.00;;
64467;SDS011;50853;46.836;16.820;2022-08-01T04:00:14;7.40;;;2.95;;
64467;SDS011;50853;46.836;16.820;2022-08-01T04:02:46;4.38;;;3.17;;
64467;SDS011;50853;46.836;16.820;2022-08-01T04:05:16;6.75;;;3.40;;
64467;SDS011;50853;46.836;16.820;2022-08-01T04:07:45;4.22;;;3.35;;
64467;SDS011;50853;46.836;16.820;2022-08-01T04:10:13;5.65;;;2.97;;
64467;SDS011;50853;46.836;16.820;2022-08-01T04:12:39;10.52;;;3.35;;
64467;SDS011;50853;46.836;16.820;2022-08-01T04:15:06;6.60;;;3.28;;
64467;SDS011;50853;46.836;16.820;2022-08-01T04:17:33;5.22;;;2.60;;
64467;SDS011;50853;46.836;16.820;2022-08-01T04:19:58;6.00;;;2.90;;
64467;SDS011;50853;46.836;16.820;2022-08-01T04:22:24;4.20;;;3.00;;
64467;SDS011;50853;46.836;16.820;2022-08-01T04:27:22;4.93;;;3.30;;
64467;SDS011;50853;46.836;16.820;2022-08-01T04:29:51;3.92;;;3.22;;
64467;SDS011;50853;46.836;16.820;2022-08-01T04:32:20;3.63;;;3.05;;
64467;SDS011;50853;46.836;16.820;2022-08-01T04:34:47;5.78;;;3.53;;
64467;SDS011;50853;46.836;16.820;2022-08-01T04:37:14;5.30;;;3.00;;
64467;SDS011;50853;46.836;16.820;2022-08-01T04:39:42;6.68;;;3.30;;
64467;SDS011;50853;46.836;16.820;2022-08-01T04:56:42;3.75;;;2.50;;
64467;SDS011;50853;46.836;16.820;2022-08-01T04:59:08;3.50;;;2.70;;
64467;SDS011;50853;46.836;16.820;2022-08-01T05:01:52;7.20;;;2.97;;
64467;SDS011;50853;46.836;16.820;2022-08-01T05:04:18;8.73;;;3.28;;
64467;SDS011;50853;46.836;16.820;2022-08-01T05:06:44;11.25;;;3.63;;
64467;SDS011;50853;46.836;16.820;2022-08-01T05:09:10;6.90;;;3.40;;
64467;SDS011;50853;46.836;16.820;2022-08-01T05:11:36;7.22;;;3.40;;
64467;SDS011;50853;46.836;16.820;2022-08-01T05:14:02;7.97;;;3.70;;
64467;SDS011;50853;46.836;16.820;2022-08-01T05:16:28;5.63;;;3.50;;
64467;SDS011;50853;46.836;16.820;2022-08-01T05:18:53;9.75;;;2.95;;
64467;SDS011;50853;46.836;16.820;2022-08-01T05:21:19;8.18;;;3.13;;
64467;SDS011;50853;46.836;16.820;2022-08-01T05:23:45;4.88;;;3.33;;
64467;SDS011;50853;46.836;16.820;2022-08-01T05:26:11;4.38;;;3.15;;
64467;SDS011;50853;46.836;16.820;2022-08-01T05:28:39;5.57;;;2.97;;
64467;SDS011;50853;46.836;16.820;2022-08-01T05:31:04;4.53;;;3.13;;
64467;SDS011;50853;46.836;16.820;2022-08-01T05:33:30;5.15;;;3.20;;
64467;SDS011;50853;46.836;16.820;2022-08-01T05:35:56;4.20;;;3.38;;
64467;SDS011;50853;46.836;16.820;2022-08-01T05:38:22;7.05;;;2.63;;
64467;SDS011;50853;46.836;16.820;2022-08-01T05:40:47;7.75;;;3.20;;
64467;SDS011;50853;46.836;16.820;2022-08-01T05:43:13;10.27;;;2.78;;
64467;SDS011;50853;46.836;16.820;2022-08-01T05:45:39;7.10;;;3.10;;
64467;SDS011;50853;46.836;16.820;2022-08-01T05:50:32;9.70;;;2.83;;
64467;SDS011;50853;46.836;16.820;2022-08-01T05:52:58;4.88;;;2.92;;
64467;SDS011;50853;46.836;16.820;2022-08-01T05:55:24;6.47;;;2.95;;
64467;SDS011;50853;46.836;16.820;2022-08-01T05:57:50;7.93;;;3.38;;
64467;SDS011;50853;46.836;16.820;2022-08-01T06:00:16;11.20;;;3.28;;
64467;SDS011;50853;46.836;16.820;2022-08-01T06:02:42;5.35;;;3.25;;
64467;SDS011;50853;46.836;16.820;2022-08-01T06:05:08;8.10;;;3.35;;
64467;SDS011;50853;46.836;16.820;2022-08-01T06:07:35;22.73;;;3.85;;
64467;SDS011;50853;46.836;16.820;2022-08-01T06:10:01;12.82;;;4.13;;
64467;SDS011;50853;46.836;16.820;2022-08-01T06:12:27;9.10;;;3.85;;
64467;SDS011;50853;46.836;16.820;2022-08-01T06:14:53;8.30;;;3.83;;
64467;SDS011;50853;46.836;16.820;2022-08-01T06:17:19;13.60;;;3.53;;
64467;SDS011;50853;46.836;16.820;2022-08-01T06:19:45;11.55;;;3.80;;
64467;SDS011;50853;46.836;16.820;2022-08-01T06:22:10;7.32;;;3.53;;
64467;SDS011;50853;46.836;16.820;2022-08-01T06:24:36;10.27;;;4.25;;
64467;SDS011;50853;46.836;16.820;2022-08-01T06:27:02;5.85;;;2.95;;
64467;SDS011;50853;46.836;16.820;2022-08-01T06:29:29;12.68;;;4.55;;
64467;SDS011;50853;46.836;16.820;2022-08-01T06:31:57;7.70;;;3.90;;
64467;SDS011;50853;46.836;16.820;2022-08-01T06:34:23;5.63;;;3.30;;
64467;SDS011;50853;46.836;16.820;2022-08-01T06:36:49;7.32;;;4.03;;
64467;SDS011;50853;46.836;16.820;2022-08-01T06:39:15;8.68;;;3.13;;
64467;SDS011;50853;46.836;16.820;2022-08-01T06:41:41;10.30;;;3.63;;
64467;SDS011;50853;46.836;16.820;2022-08-01T06:44:07;6.13;;;3.40;;
64467;SDS011;50853;46.836;16.820;2022-08-01T06:46:34;9.80;;;3.55;;
64467;SDS011;50853;46.836;16.820;2022-08-01T06:49:00;7.53;;;3.47;;
64467;SDS011;50853;46.836;16.820;2022-08-01T06:51:25;10.38;;;4.07;;
64467;SDS011;50853;46.836;16.820;2022-08-01T06:53:52;8.55;;;3.65;;
64467;SDS011;50853;46.836;16.820;2022-08-01T06:58:44;8.33;;;3.47;;
64467;SDS011;50853;46.836;16.820;2022-08-01T07:01:10;8.13;;;4.00;;
64467;SDS011;50853;46.836;16.820;2022-08-01T07:03:36;9.85;;;3.20;;
64467;SDS011;50853;46.836;16.820;2022-08-01T07:06:02;7.97;;;3.70;;
64467;SDS011;50853;46.836;16.820;2022-08-01T07:08:29;9.45;;;3.85;;
64467;SDS011;50853;46.836;16.820;2022-08-01T07:10:55;5.22;;;2.92;;
64467;SDS011;50853;46.836;16.820;2022-08-01T07:13:27;8.15;;;3.05;;
64467;SDS011;50853;46.836;16.820;2022-08-01T07:15:55;8.45;;;3.30;;
64467;SDS011;50853;46.836;16.820;2022-08-01T07:18:22;8.25;;;2.90;;
64467;SDS011;50853;46.836;16.820;2022-08-01T07:20:48;6.30;;;3.13;;
64467;SDS011;50853;46.836;16.820;2022-08-01T07:23:15;7.80;;;3.20;;
64467;SDS011;50853;46.836;16.820;2022-08-01T07:25:41;11.07;;;3.63;;
64467;SDS011;50853;46.836;16.820;2022-08-01T07:28:07;15.02;;;3.60;;
64467;SDS011;50853;46.836;16.820;2022-08-01T07:30:33;10.30;;;3.72;;
64467;SDS011;50853;46.836;16.820;2022-08-01T07:33:00;5.63;;;2.88;;
64467;SDS011;50853;46.836;16.820;2022-08-01T07:35:26;4.07;;;2.17;;
64467;SDS011;50853;46.836;16.820;2022-08-01T07:37:52;4.60;;;2.53;;
64467;SDS011;50853;46.836;16.820;2022-08-01T07:40:18;9.77;;;2.75;;
64467;SDS011;50853;46.836;16.820;2022-08-01T07:45:11;6.82;;;2.83;;
64467;SDS011;50853;46.836;16.820;2022-08-01T07:47:38;10.52;;;2.90;;
64467;SDS011;50853;46.836;16.820;2022-08-01T07:50:04;6.90;;;2.50;;
64467;SDS011;50853;46.836;16.820;2022-08-01T07:52:31;3.35;;;2.70;;
64467;SDS011;50853;46.836;16.820;2022-08-01T07:54:57;7.53;;;2.65;;
64467;SDS011;50853;46.836;16.820;2022-08-01T07:57:24;4.60;;;2.40;;
64467;SDS011;50853;46.836;16.820;2022-08-01T07:59:50;5.72;;;2.65;;
64467;SDS011;50853;46.836;16.820;2022-08-01T08:02:16;5.67;;;2.33;;
64467;SDS011;50853;46.836;16.820;2022-08-01T08:04:42;6.40;;;2.50;;
64467;SDS011;50853;46.836;16.820;2022-08-01T08:07:08;4.68;;;2.83;;
64467;SDS011;50853;46.836;16.820;2022-08-01T08:09:34;3.10;;;2.50;;
64467;SDS011;50853;46.836;16.820;2022-08-01T08:12:00;10.80;;;3.20;;
64467;SDS011;50853;46.836;16.820;2022-08-01T08:14:26;11.75;;;2.90;;
64467;SDS011;50853;46.836;16.820;2022-08-01T08:16:51;3.40;;;2.30;;
64467;SDS011;50853;46.836;16.820;2022-08-01T08:19:17;6.18;;;2.47;;
64467;SDS011;50853;46.836;16.820;2022-08-01T08:21:43;4.72;;;2.22;;
64467;SDS011;50853;46.836;16.820;2022-08-01T08:24:10;8.60;;;2.95;;
64467;SDS011;50853;46.836;16.820;2022-08-01T08:26:53;5.57;;;2.78;;
64467;SDS011;50853;46.836;16.820;2022-08-01T08:29:20;6.68;;;2.67;;
64467;SDS011;50853;46.836;16.820;2022-08-01T08:31:49;4.32;;;2.17;;
64467;SDS011;50853;46.836;16.820;2022-08-01T08:34:16;7.20;;;2.65;;
64467;SDS011;50853;46.836;16.820;2022-08-01T08:36:42;4.37;;;2.20;;
64467;SDS011;50853;46.836;16.820;2022-08-01T08:39:08;3.47;;;2.17;;
64467;SDS011;50853;46.836;16.820;2022-08-01T08:41:34;7.70;;;2.60;;
64467;SDS011;50853;46.836;16.820;2022-08-01T08:44:01;5.45;;;2.17;;
64467;SDS011;50853;46.836;16.820;2022-08-01T08:46:28;2.97;;;2.10;;
64467;SDS011;50853;46.836;16.820;2022-08-01T08:48:57;2.50;;;2.13;;
64467;SDS011;50853;46.836;16.820;2022-08-01T08:51:25;7.63;;;3.03;;
64467;SDS011;50853;46.836;16.820;2022-08-01T08:53:55;7.38;;;2.97;;
64467;SDS011;50853;46.836;16.820;2022-08-01T08:56:25;4.60;;;3.00;;
64467;SDS011;50853;46.836;16.820;2022-08-01T08:58:55;7.85;;;3.00;;
64467;SDS011;50853;46.836;16.820;2022-08-01T09:01:22;6.93;;;3.28;;
64467;SDS011;50853;46.836;16.820;2022-08-01T09:03:48;9.25;;;3.35;;
64467;SDS011;50853;46.836;16.820;2022-08-01T09:06:13;6.27;;;2.90;;
64467;SDS011;50853;46.836;16.820;2022-08-01T09:08:39;6.40;;;3.20;;
64467;SDS011;50853;46.836;16.820;2022-08-01T09:11:05;4.35;;;3.35;;
64467;SDS011;50853;46.836;16.820;2022-08-01T09:13:31;10.13;;;3.75;;
64467;SDS011;50853;46.836;16.820;2022-08-01T09:15:57;6.40;;;3.13;;
64467;SDS011;50853;46.836;16.820;2022-08-01T09:18:33;7.10;;;2.55;;
64467;SDS011;50853;46.836;16.820;2022-08-01T09:21:12;4.53;;;2.80;;
64467;SDS011;50853;46.836;16.820;2022-08-01T09:23:46;4.45;;;2.70;;
64467;SDS011;50853;46.836;16.820;2022-08-01T09:26:35;4.05;;;2.40;;
64467;SDS011;50853;46.836;16.820;2022-08-01T09:29:02;3.20;;;2.40;;
64467;SDS011;50853;46.836;16.820;2022-08-01T09:31:41;3.40;;;2.30;;
64467;SDS011;50853;46.836;16.820;2022-08-01T09:34:09;5.47;;;2.50;;
64467;SDS011;50853;46.836;16.820;2022-08-01T09:39:17;6.43;;;2.42;;
64467;SDS011;50853;46.836;16.820;2022-08-01T09:41:44;5.32;;;2.42;;
64467;SDS011;50853;46.836;16.820;2022-08-01T09:44:11;4.82;;;2.67;;
64467;SDS011;50853;46.836;16.820;2022-08-01T09:46:55;5.05;;;2.40;;
64467;SDS011;50853;46.836;16.820;2022-08-01T09:49:31;5.18;;;2.47;;
64467;SDS011;50853;46.836;16.820;2022-08-01T09:52:00;3.15;;;2.40;;
64467;SDS011;50853;46.836;16.820;2022-08-01T09:54:39;7.38;;;2.90;;
64467;SDS011;50853;46.836;16.820;2022-08-01T09:57:10;3.28;;;2.50;;
64467;SDS011;50853;46.836;16.820;2022-08-01T09:59:42;2.92;;;2.15;;
64467;SDS011;50853;46.836;16.820;2022-08-01T10:02:14;5.20;;;2.65;;
64467;SDS011;50853;46.836;16.820;2022-08-01T10:04:52;7.15;;;2.90;;
64467;SDS011;50853;46.836;16.820;2022-08-01T10:07:18;5.50;;;2.70;;
64467;SDS011;50853;46.836;16.820;2022-08-01T10:09:45;3.97;;;2.40;;
64467;SDS011;50853;46.836;16.820;2022-08-01T10:12:18;4.22;;;1.85;;
64467;SDS011;50853;46.836;16.820;2022-08-01T10:14:46;5.72;;;2.10;;
64467;SDS011;50853;46.836;16.820;2022-08-01T10:17:21;3.35;;;2.00;;
64467;SDS011;50853;46.836;16.820;2022-08-01T10:19:50;5.20;;;2.33;;
64467;SDS011;50853;46.836;16.820;2022-08-01T10:22:19;6.07;;;2.20;;
64467;SDS011;50853;46.836;16.820;2022-08-01T10:24:49;4.80;;;2.15;;
64467;SDS011;50853;46.836;16.820;2022-08-01T10:27:19;2.88;;;2.00;;
64467;SDS011;50853;46.836;16.820;2022-08-01T10:29:47;3.00;;;1.80;;
64467;SDS011;50853;46.836;16.820;2022-08-01T10:32:20;6.55;;;2.13;;
64467;SDS011;50853;46.836;16.820;2022-08-01T10:34:46;2.72;;;1.67;;
64467;SDS011;50853;46.836;16.820;2022-08-01T10:37:14;2.92;;;1.35;;
64467;SDS011;50853;46.836;16.820;2022-08-01T10:39:42;4.65;;;1.67;;
64467;SDS011;50853;46.836;16.820;2022-08-01T10:42:11;6.18;;;1.92;;
64467;SDS011;50853;46.836;16.820;2022-08-01T10:44:38;2.75;;;1.60;;
64467;SDS011;50853;46.836;16.820;2022-08-01T10:47:12;3.75;;;1.50;;
64467;SDS011;50853;46.836;16.820;2022-08-01T10:49:45;2.50;;;1.50;;
64467;SDS011;50853;46.836;16.820;2022-08-01T10:52:17;3.17;;;1.63;;
64467;SDS011;50853;46.836;16.820;2022-08-01T10:54:43;3.88;;;1.80;;
64467;SDS011;50853;46.836;16.820;2022-08-01T10:57:09;4.93;;;1.55;;
64467;SDS011;50853;46.836;16.820;2022-08-01T10:59:47;4.47;;;1.52;;
64467;SDS011;50853;46.836;16.820;2022-08-01T11:02:25;4.32;;;1.60;;
64467;SDS011;50853;46.836;16.820;2022-08-01T11:05:00;4.03;;;1.60;;
64467;SDS011;50853;46.836;16.820;2022-08-01T11:12:58;2.28;;;1.42;;
64467;SDS011;50853;46.836;16.820;2022-08-01T11:15:26;1.83;;;1.27;;
64467;SDS011;50853;46.836;16.820;2022-08-01T11:17:55;3.10;;;1.50;;
64467;SDS011;50853;46.836;16.820;2022-08-01T11:20:27;3.00;;;1.45;;
64467;SDS011;50853;46.836;16.820;2022-08-01T11:33:08;9.30;;;1.83;;
64467;SDS011;50853;46.836;16.820;2022-08-01T11:35:35;3.03;;;1.40;;
64467;SDS011;50853;46.836;16.820;2022-08-01T11:52:30;4.63;;;1.83;;
64467;SDS011;50853;46.836;16.820;2022-08-01T11:57:28;2.80;;;1.50;;
64467;SDS011;50853;46.836;16.820;2022-08-01T11:59:57;2.25;;;1.40;;
64467;SDS011;50853;46.836;16.820;2022-08-01T12:02:26;2.92;;;1.50;;
64467;SDS011;50853;46.836;16.820;2022-08-01T12:05:02;3.42;;;1.67;;
64467;SDS011;50853;46.836;16.820;2022-08-01T12:07:31;3.85;;;1.63;;
64467;SDS011;50853;46.836;16.820;2022-08-01T12:10:09;5.03;;;1.70;;
64467;SDS011;50853;46.836;16.820;2022-08-01T12:12:41;5.53;;;1.48;;
64467;SDS011;50853;46.836;16.820;2022-08-01T12:15:08;5.60;;;1.63;;
64467;SDS011;50853;46.836;16.820;2022-08-01T12:17:36;2.00;;;1.27;;
64467;SDS011;50853;46.836;16.820;2022-08-01T12:20:05;6.85;;;1.92;;
64467;SDS011;50853;46.836;16.820;2022-08-01T12:22:32;2.60;;;1.63;;
64467;SDS011;50853;46.836;16.820;2022-08-01T12:25:06;2.47;;;1.50;;
64467;SDS011;50853;46.836;16.820;2022-08-01T12:27:32;2.65;;;1.55;;
64467;SDS011;50853;46.836;16.820;2022-08-01T12:32:28;3.88;;;1.60;;
64467;SDS011;50853;46.836;16.820;2022-08-01T12:35:17;2.60;;;1.58;;
64467;SDS011;50853;46.836;16.820;2022-08-01T12:38:00;2.65;;;1.50;;
64467;SDS011;50853;46.836;16.820;2022-08-01T12:40:32;5.28;;;1.77;;
64467;SDS011;50853;46.836;16.820;2022-08-01T12:43:00;4.03;;;1.50;;
64467;SDS011;50853;46.836;16.820;2022-08-01T12:45:32;2.60;;;1.52;;
64467;SDS011;50853;46.836;16.820;2022-08-01T12:48:10;3.67;;;1.73;;
64467;SDS011;50853;46.836;16.820;2022-08-01T12:50:41;6.22;;;1.27;;
64467;SDS011;50853;46.836;16.820;2022-08-01T12:53:09;2.60;;;1.67;;
64467;SDS011;50853;46.836;16.820;2022-08-01T12:58:18;3.22;;;1.30;;
64467;SDS011;50853;46.836;16.820;2022-08-01T13:00:45;3.65;;;1.50;;
64467;SDS011;50853;46.836;16.820;2022-08-01T13:03:13;2.60;;;1.48;;
64467;SDS011;50853;46.836;16.820;2022-08-01T13:08:15;2.42;;;1.35;;
64467;SDS011;50853;46.836;16.820;2022-08-01T13:10:46;3.55;;;1.50;;
64467;SDS011;50853;46.836;16.820;2022-08-01T13:13:13;3.63;;;1.70;;
64467;SDS011;50853;46.836;16.820;2022-08-01T13:15:40;4.30;;;1.40;;
64467;SDS011;50853;46.836;16.820;2022-08-01T13:29:13;12.20;;;4.55;;
64467;SDS011;50853;46.836;16.820;2022-08-01T13:31:43;2.97;;;1.45;;
64467;SDS011;50853;46.836;16.820;2022-08-01T13:34:09;3.63;;;1.60;;
64467;SDS011;50853;46.836;16.820;2022-08-01T13:36:36;3.45;;;1.40;;
64467;SDS011;50853;46.836;16.820;2022-08-01T13:39:03;4.63;;;1.40;;
64467;SDS011;50853;46.836;16.820;2022-08-01T13:41:49;4.25;;;1.33;;
64467;SDS011;50853;46.836;16.820;2022-08-01T13:44:15;2.47;;;1.30;;
64467;SDS011;50853;46.836;16.820;2022-08-01T13:46:41;2.08;;;1.30;;
64467;SDS011;50853;46.836;16.820;2022-08-01T13:49:08;3.40;;;1.45;;
64467;SDS011;50853;46.836;16.820;2022-08-01T13:51:35;2.85;;;1.75;;
64467;SDS011;50853;46.836;16.820;2022-08-01T13:54:02;4.93;;;1.30;;
64467;SDS011;50853;46.836;16.820;2022-08-01T13:56:28;6.13;;;1.83;;
64467;SDS011;50853;46.836;16.820;2022-08-01T13:58:54;4.25;;;1.85;;
64467;SDS011;50853;46.836;16.820;2022-08-01T14:01:21;2.47;;;1.67;;
64467;SDS011;50853;46.836;16.820;2022-08-01T14:03:47;1.92;;;1.40;;
64467;SDS011;50853;46.836;16.820;2022-08-01T14:06:13;2.20;;;1.48;;
64467;SDS011;50853;46.836;16.820;2022-08-01T14:08:41;3.10;;;1.63;;
64467;SDS011;50853;46.836;16.820;2022-08-01T14:11:08;2.60;;;1.40;;
64467;SDS011;50853;46.836;16.820;2022-08-01T14:16:03;2.88;;;1.48;;
64467;SDS011;50853;46.836;16.820;2022-08-01T14:18:30;5.47;;;1.58;;
64467;SDS011;50853;46.836;16.820;2022-08-01T14:23:22;2.95;;;1.92;;
64467;SDS011;50853;46.836;16.820;2022-08-01T14:25:48;6.13;;;2.38;;
64467;SDS011;50853;46.836;16.820;2022-08-01T14:28:14;3.60;;;1.60;;
64467;SDS011;50853;46.836;16.820;2022-08-01T14:30:39;2.47;;;1.42;;
64467;SDS011;50853;46.836;16.820;2022-08-01T14:33:09;3.10;;;1.58;;
64467;SDS011;50853;46.836;16.820;2022-08-01T14:35:35;2.45;;;1.58;;
64467;SDS011;50853;46.836;16.820;2022-08-01T14:38:02;2.95;;;1.60;;
64467;SDS011;50853;46.836;16.820;2022-08-01T14:40:28;2.33;;;1.50;;
64467;SDS011;50853;46.836;16.820;2022-08-01T14:42:54;3.40;;;1.70;;
64467;SDS011;50853;46.836;16.820;2022-08-01T14:45:20;3.25;;;1.70;;
64467;SDS011;50853;46.836;16.820;2022-08-01T14:47:46;4.07;;;1.90;;
64467;SDS011;50853;46.836;16.820;2022-08-01T14:50:13;9.90;;;1.58;;
64467;SDS011;50853;46.836;16.820;2022-08-01T14:52:41;2.40;;;1.52;;
64467;SDS011;50853;46.836;16.820;2022-08-01T14:55:08;4.43;;;1.60;;
